createdAt,value
2022-09-02T00:01:19.498Z,93860.25
2022-09-02T00:03:47.602Z,93861.06
2022-09-02T00:06:15.252Z,93863.09
2022-09-02T00:08:43.019Z,93865.09
2022-09-02T00:11:14.429Z,93865.47
2022-09-02T00:13:43.297Z,93866.31
2022-09-02T00:16:11.475Z,93866.88
2022-09-02T00:18:39.712Z,93874.75
2022-09-02T00:21:13.685Z,93878.78
2022-09-02T00:23:41.766Z,93877.59
2022-09-02T00:26:08.454Z,93878.41
2022-09-02T00:28:35.642Z,93876.72
2022-09-02T00:31:02.511Z,93878.66
2022-09-02T00:33:29.790Z,93878.97
2022-09-02T00:35:59.346Z,93875.53
2022-09-02T00:38:26.087Z,93880.00
2022-09-02T00:40:54.034Z,93876.47
2022-09-02T00:43:41.999Z,93876.84
2022-09-02T00:46:10.139Z,93874.72
2022-09-02T00:48:41.357Z,93876.03
2022-09-02T00:51:09.916Z,93863.44
2022-09-02T00:53:39.520Z,93876.28
2022-09-02T00:56:13.131Z,93881.41
2022-09-02T00:58:43.098Z,93887.19
2022-09-02T01:01:11.773Z,93894.72
2022-09-02T01:03:41.046Z,93890.13
2022-09-02T01:06:10.334Z,93895.34
2022-09-02T01:08:39.317Z,93888.69
2022-09-02T01:11:06.766Z,93894.50
2022-09-02T01:13:39.068Z,93894.00
2022-09-02T01:16:17.859Z,93897.50
2022-09-02T01:18:50.370Z,93892.50
2022-09-02T01:21:17.863Z,93896.41
2022-09-02T01:23:46.596Z,93905.50
2022-09-02T01:26:13.619Z,93903.47
2022-09-02T01:28:40.839Z,93897.75
2022-09-02T01:31:07.826Z,93895.72
2022-09-02T01:33:35.046Z,93881.19
2022-09-02T01:36:04.307Z,93873.59
2022-09-02T01:38:32.624Z,93865.94
2022-09-02T01:40:59.914Z,93853.63
2022-09-02T01:43:28.293Z,93847.50
2022-09-02T01:45:57.484Z,93839.44
2022-09-02T01:48:24.570Z,93841.22
2022-09-02T01:50:59.128Z,93830.91
2022-09-02T01:53:26.533Z,93824.72
2022-09-02T01:55:53.313Z,93823.84
2022-09-02T01:58:20.434Z,93827.44
2022-09-02T02:00:48.195Z,93820.69
2022-09-02T02:03:15.422Z,93817.31
2022-09-02T02:05:42.380Z,93820.47
2022-09-02T02:08:09.524Z,93820.47
2022-09-02T02:10:36.819Z,93821.50
2022-09-02T02:13:03.701Z,93818.50
2022-09-02T02:17:56.311Z,93826.88
2022-09-02T02:20:23.173Z,93822.63
2022-09-02T02:22:49.942Z,93823.50
2022-09-02T02:25:17.179Z,93830.66
2022-09-02T02:27:44.923Z,93826.78
2022-09-02T02:30:13.936Z,93823.81
2022-09-02T02:32:41.099Z,93839.81
2022-09-02T02:35:08.445Z,93833.34
2022-09-02T02:37:35.209Z,93833.03
2022-09-02T02:40:02.353Z,93844.66
2022-09-02T02:42:29.165Z,93831.66
2022-09-02T02:44:58.450Z,93829.72
2022-09-02T02:47:25.226Z,93836.09
2022-09-02T02:49:51.880Z,93838.28
2022-09-02T02:52:18.667Z,93830.53
2022-09-02T02:54:45.475Z,93838.88
2022-09-02T02:57:12.440Z,93844.66
2022-09-02T02:59:39.302Z,93833.09
2022-09-02T03:02:06.666Z,93822.06
2022-09-02T03:04:34.270Z,93841.53
2022-09-02T03:07:01.045Z,93837.59
2022-09-02T03:09:27.772Z,93833.78
2022-09-02T03:11:54.507Z,93841.59
2022-09-02T03:14:21.120Z,93839.38
2022-09-02T03:16:47.888Z,93833.38
2022-09-02T03:19:14.667Z,93836.50
2022-09-02T03:21:42.141Z,93829.78
2022-09-02T03:24:12.021Z,93826.94
2022-09-02T03:26:40.665Z,93838.38
2022-09-02T03:29:07.415Z,93835.47
2022-09-02T03:31:34.305Z,93833.03
2022-09-02T03:34:01.600Z,93839.22
2022-09-02T03:36:32.023Z,93838.81
2022-09-02T03:38:59.705Z,93842.25
2022-09-02T03:41:26.641Z,93843.38
2022-09-02T03:43:53.357Z,93850.53
2022-09-02T03:46:20.316Z,93855.63
2022-09-02T03:48:47.904Z,93858.44
2022-09-02T03:51:15.178Z,93862.69
2022-09-02T03:53:41.970Z,93870.75
2022-09-02T03:56:12.695Z,93877.72
2022-09-02T03:58:40.377Z,93879.34
2022-09-02T04:01:12.624Z,93883.56
2022-09-02T04:03:39.306Z,93881.00
2022-09-02T04:06:06.434Z,93884.47
2022-09-02T04:08:33.045Z,93887.97
2022-09-02T04:10:59.650Z,93895.38
2022-09-02T04:13:26.271Z,93894.69
2022-09-02T04:15:53.071Z,93891.53
2022-09-02T04:18:19.832Z,93902.41
2022-09-02T04:20:46.519Z,93909.50
2022-09-02T04:23:13.343Z,93907.25
2022-09-02T04:25:42.111Z,93901.31
2022-09-02T04:28:09.667Z,93914.22
2022-09-02T04:30:39.887Z,93899.53
2022-09-02T04:33:06.512Z,93909.28
2022-09-02T04:35:33.315Z,93910.44
2022-09-02T04:38:00.146Z,93919.38
2022-09-02T04:40:27.866Z,93919.69
2022-09-02T04:42:55.673Z,93925.38
2022-09-02T04:45:24.637Z,93921.56
2022-09-02T04:47:54.540Z,93916.66
2022-09-02T04:50:21.452Z,93918.13
2022-09-02T04:52:48.066Z,93919.88
2022-09-02T04:55:14.865Z,93922.06
2022-09-02T04:57:42.528Z,93926.03
2022-09-02T05:00:10.395Z,93921.38
2022-09-02T05:02:37.142Z,93930.94
2022-09-02T05:05:04.073Z,93926.13
2022-09-02T05:07:30.918Z,93939.66
2022-09-02T05:09:59.129Z,93936.47
2022-09-02T05:12:28.225Z,93936.59
2022-09-02T05:14:57.122Z,93932.81
2022-09-02T05:17:24.008Z,93942.09
2022-09-02T05:19:50.721Z,93942.38
2022-09-02T05:22:18.021Z,93943.56
2022-09-02T05:24:45.146Z,93948.63
2022-09-02T05:27:13.108Z,93942.81
2022-09-02T05:29:42.918Z,93944.47
2022-09-02T05:32:11.896Z,93940.97
2022-09-02T05:34:38.864Z,93940.75
2022-09-02T05:37:05.959Z,93940.38
2022-09-02T05:39:32.755Z,93931.19
2022-09-02T05:41:59.762Z,93934.94
2022-09-02T05:44:26.542Z,93937.38
2022-09-02T05:46:53.318Z,93929.00
2022-09-02T05:49:21.562Z,93927.03
2022-09-02T05:51:54.341Z,93925.22
2022-09-02T05:54:30.619Z,93928.94
2022-09-02T05:57:00.911Z,93921.16
2022-09-02T05:59:30.088Z,93918.47
2022-09-02T06:01:57.929Z,93919.81
2022-09-02T06:04:26.189Z,93917.75
2022-09-02T06:06:52.943Z,93917.13
2022-09-02T06:09:22.766Z,93920.47
2022-09-02T06:11:50.850Z,93914.59
2022-09-02T06:14:21.761Z,93915.56
2022-09-02T06:16:50.478Z,93921.63
2022-09-02T06:19:20.314Z,93923.13
2022-09-02T06:21:51.333Z,93923.38
2022-09-02T06:24:18.145Z,93929.84
2022-09-02T06:26:44.848Z,93926.16
2022-09-02T06:29:11.859Z,93934.44
2022-09-02T06:31:42.340Z,93932.16
2022-09-02T06:34:12.478Z,93927.81
2022-09-02T06:36:39.666Z,93933.38
2022-09-02T06:39:06.742Z,93929.78
2022-09-02T06:41:34.769Z,93934.44
2022-09-02T06:44:06.940Z,93935.28
2022-09-02T06:46:36.598Z,93940.56
2022-09-02T06:49:05.742Z,93937.00
2022-09-02T06:51:36.741Z,93943.47
2022-09-02T06:54:05.286Z,93948.72
2022-09-02T06:56:32.734Z,93953.75
2022-09-02T06:59:00.061Z,93949.94
2022-09-02T07:01:30.449Z,93949.56
2022-09-02T07:04:16.469Z,93952.69
2022-09-02T07:06:47.891Z,93963.13
2022-09-02T07:09:18.230Z,93960.28
2022-09-02T07:11:48.717Z,93952.88
2022-09-02T07:14:17.225Z,93967.38
2022-09-02T07:16:50.867Z,93966.50
2022-09-02T07:19:20.811Z,93967.09
2022-09-02T07:21:49.501Z,93962.44
2022-09-02T07:24:17.698Z,93967.38
2022-09-02T07:26:45.449Z,93967.59
2022-09-02T07:29:12.811Z,93968.22
2022-09-02T07:31:43.086Z,93962.53
2022-09-02T07:34:10.684Z,93964.38
2022-09-02T07:36:38.141Z,93968.38
2022-09-02T07:39:07.994Z,93964.13
2022-09-02T07:41:35.565Z,93968.56
2022-09-02T07:44:03.271Z,93965.00
2022-09-02T07:46:31.648Z,93967.97
2022-09-02T07:48:59.853Z,93965.41
2022-09-02T07:51:27.561Z,93967.69
2022-09-02T07:53:57.572Z,93974.81
2022-09-02T07:56:24.353Z,93969.00
2022-09-02T07:58:51.265Z,93972.06
2022-09-02T08:01:23.172Z,93984.34
2022-09-02T08:03:50.455Z,93983.25
2022-09-02T08:06:17.296Z,93982.50
2022-09-02T08:08:48.698Z,93995.97
2022-09-02T08:11:15.392Z,93997.09
2022-09-02T08:13:42.103Z,93988.22
2022-09-02T08:16:09.187Z,93992.56
2022-09-02T08:18:36.370Z,93997.94
2022-09-02T08:21:04.102Z,93996.47
2022-09-02T08:23:37.158Z,93991.75
2022-09-02T08:26:05.757Z,94002.69
2022-09-02T08:28:32.687Z,93996.41
2022-09-02T08:30:59.590Z,93998.28
2022-09-02T08:33:26.529Z,93995.22
2022-09-02T08:35:53.273Z,93995.31
2022-09-02T08:38:22.142Z,93989.81
2022-09-02T08:40:51.233Z,93995.25
2022-09-02T08:43:26.771Z,93993.44
2022-09-02T08:45:56.307Z,93993.34
2022-09-02T08:48:45.376Z,93984.13
2022-09-02T08:51:37.359Z,93989.75
2022-09-02T08:54:16.377Z,93984.25
2022-09-02T08:56:43.043Z,93978.09
2022-09-02T08:59:10.372Z,93974.59
2022-09-02T09:01:47.923Z,93977.63
2022-09-02T09:04:51.248Z,93979.44
2022-09-02T09:07:27.656Z,93973.75
2022-09-02T09:10:09.715Z,93975.41
2022-09-02T09:13:00.789Z,93978.28
2022-09-02T09:15:56.501Z,93972.09
2022-09-02T09:18:37.326Z,93974.81
2022-09-02T09:21:04.501Z,93974.63
2022-09-02T09:23:34.814Z,93974.38
2022-09-02T09:26:11.607Z,93975.97
2022-09-02T09:28:43.703Z,93967.53
2022-09-02T09:31:17.649Z,93963.97
2022-09-02T09:34:07.278Z,93963.78
2022-09-02T09:36:39.883Z,93965.53
2022-09-02T09:39:30.148Z,93957.59
2022-09-02T09:42:10.074Z,93959.44
2022-09-02T09:44:45.195Z,93966.53
2022-09-02T09:47:20.015Z,93959.56
2022-09-02T09:49:50.297Z,93964.94
2022-09-02T09:52:28.881Z,93964.13
2022-09-02T09:55:14.323Z,93958.16
2022-09-02T09:57:44.786Z,93957.28
2022-09-02T10:00:16.423Z,93953.56
2022-09-02T10:02:55.532Z,93967.66
2022-09-02T10:05:25.209Z,93967.22
2022-09-02T10:07:59.549Z,93960.03
2022-09-02T10:10:29.264Z,93951.72
2022-09-02T10:13:16.676Z,93959.13
2022-09-02T10:16:14.414Z,93955.09
2022-09-02T10:18:41.061Z,93954.16
2022-09-02T10:21:24.655Z,93956.72
2022-09-02T10:24:11.389Z,93957.59
2022-09-02T10:26:42.588Z,93956.09
2022-09-02T10:29:11.987Z,93960.03
2022-09-02T10:31:56.774Z,93959.91
2022-09-02T10:34:46.401Z,93959.69
2022-09-02T10:37:19.290Z,93954.13
2022-09-02T10:40:08.507Z,93968.00
2022-09-02T10:42:52.081Z,93957.81
2022-09-02T10:45:46.645Z,93952.78
2022-09-02T10:48:16.119Z,93959.34
2022-09-02T10:50:54.068Z,93956.72
2022-09-02T10:53:34.409Z,93954.97
2022-09-02T10:56:16.004Z,93954.44
2022-09-02T10:58:56.132Z,93948.50
2022-09-02T11:01:28.248Z,93948.06
2022-09-02T11:04:03.963Z,93947.75
2022-09-02T11:06:58.637Z,93935.06
2022-09-02T11:09:40.653Z,93939.69
2022-09-02T11:12:09.135Z,93937.66
2022-09-02T11:14:51.491Z,93933.06
2022-09-02T11:17:38.346Z,93932.63
2022-09-02T11:20:14.315Z,93929.81
2022-09-02T11:22:55.482Z,93928.22
2022-09-02T11:25:58.188Z,93927.22
2022-09-02T11:28:33.219Z,93935.69
2022-09-02T11:31:38.838Z,93926.31
2022-09-02T11:34:35.877Z,93929.94
2022-09-02T11:37:13.930Z,93925.50
2022-09-02T11:39:59.046Z,93927.91
2022-09-02T11:42:44.822Z,93924.22
2022-09-02T11:45:39.385Z,93913.09
2022-09-02T11:48:08.824Z,93911.50
2022-09-02T11:50:53.781Z,93909.22
2022-09-02T11:53:28.404Z,93909.63
2022-09-02T11:56:05.360Z,93904.75
2022-09-02T11:58:39.598Z,93895.84
2022-09-02T12:01:15.226Z,93905.25
2022-09-02T12:07:08.777Z,93903.06
2022-09-02T12:09:48.156Z,93900.19
2022-09-02T12:12:36.439Z,93895.59
2022-09-02T12:15:14.994Z,93899.91
2022-09-02T12:17:46.269Z,93899.88
2022-09-02T12:20:40.018Z,93903.41
2022-09-02T12:23:09.511Z,93898.34
2022-09-02T12:25:49.643Z,93897.09
2022-09-02T12:28:24.186Z,93891.59
2022-09-02T12:31:08.862Z,93889.53
2022-09-02T12:33:36.857Z,93880.16
2022-09-02T12:36:05.759Z,93878.00
2022-09-02T12:38:42.866Z,93868.25
2022-09-02T12:41:25.161Z,93860.22
2022-09-02T12:44:22.842Z,93860.81
2022-09-02T12:47:00.674Z,93858.19
2022-09-02T12:49:37.754Z,93863.44
2022-09-02T12:52:12.016Z,93857.97
2022-09-02T12:54:38.564Z,93858.75
2022-09-02T12:57:09.776Z,93867.63
2022-09-02T12:59:40.248Z,93864.66
2022-09-02T13:02:31.509Z,93862.84
2022-09-02T13:05:10.320Z,93857.97
2022-09-02T13:08:04.205Z,93857.50
2022-09-02T13:10:52.725Z,93849.84
2022-09-02T13:13:38.061Z,93854.41
2022-09-02T13:16:30.654Z,93846.91
2022-09-02T13:19:16.659Z,93856.81
2022-09-02T13:22:02.629Z,93855.22
2022-09-02T13:24:57.107Z,93860.09
2022-09-02T13:27:29.382Z,93862.16
2022-09-02T13:30:14.131Z,93872.50
2022-09-02T13:32:40.979Z,93877.41
2022-09-02T13:35:23.985Z,93876.06
2022-09-02T13:37:59.695Z,93880.06
2022-09-02T13:40:28.143Z,93885.41
2022-09-02T13:43:01.775Z,93895.88
2022-09-02T13:45:31.998Z,93882.66
2022-09-02T13:48:01.780Z,93881.44
2022-09-02T13:50:31.285Z,93879.84
2022-09-02T13:55:58.154Z,93889.25
2022-09-02T13:58:31.029Z,93881.44
2022-09-02T14:01:02.296Z,93876.16
2022-09-02T14:03:33.089Z,93889.81
2022-09-02T14:06:01.090Z,93895.75
2022-09-02T14:08:30.765Z,93899.72
2022-09-02T14:10:58.473Z,93906.25
2022-09-02T14:13:26.138Z,93899.94
2022-09-02T14:15:52.854Z,93900.88
2022-09-02T14:18:22.121Z,93912.66
2022-09-02T14:21:01.621Z,93906.13
2022-09-02T14:23:33.467Z,93911.06
2022-09-02T14:26:01.878Z,93915.59
2022-09-02T14:28:34.914Z,93923.84
2022-09-02T14:31:07.482Z,93920.94
2022-09-02T14:33:41.702Z,93927.75
2022-09-02T14:36:23.772Z,93929.97
2022-09-02T14:38:57.301Z,93932.94
2022-09-02T14:41:28.220Z,93938.47
2022-09-02T14:43:58.236Z,93937.13
2022-09-02T14:46:31.586Z,93944.66
2022-09-02T14:49:04.302Z,93939.88
2022-09-02T14:51:50.348Z,93946.56
2022-09-02T14:54:37.703Z,93945.22
2022-09-02T14:57:06.957Z,93950.16
2022-09-02T14:59:34.577Z,93948.53
2022-09-02T15:02:02.101Z,93946.22
2022-09-02T15:04:28.782Z,93945.13
2022-09-02T15:06:56.740Z,93954.16
2022-09-02T15:09:23.403Z,93949.78
2022-09-02T15:11:53.814Z,93939.53
2022-09-02T15:14:20.821Z,93946.69
2022-09-02T15:16:48.616Z,93954.31
2022-09-02T15:19:15.225Z,93957.94
2022-09-02T15:21:41.853Z,93968.78
2022-09-02T15:24:08.769Z,93960.38
2022-09-02T15:26:35.372Z,93955.72
2022-09-02T15:29:03.479Z,93957.22
2022-09-02T15:31:31.052Z,93947.94
2022-09-02T15:33:58.279Z,93950.78
2022-09-02T15:36:26.276Z,93954.22
2022-09-02T15:38:53.026Z,93948.31
2022-09-02T15:41:22.292Z,93944.13
2022-09-02T15:43:51.094Z,93951.84
2022-09-02T15:46:28.311Z,93953.75
2022-09-02T15:49:00.323Z,93958.16
2022-09-02T15:51:29.097Z,93964.97
2022-09-02T15:54:05.161Z,93971.69
2022-09-02T15:56:33.907Z,93972.16
2022-09-02T15:59:03.365Z,93973.53
2022-09-02T16:01:34.733Z,93981.09
2022-09-02T16:04:02.503Z,93980.19
2022-09-02T16:06:29.853Z,93976.28
2022-09-02T16:08:56.712Z,93977.06
2022-09-02T16:11:24.259Z,93968.00
2022-09-02T16:13:51.580Z,93974.78
2022-09-02T16:16:18.525Z,93980.19
2022-09-02T16:18:50.635Z,93987.41
2022-09-02T16:21:18.303Z,93984.56
2022-09-02T16:23:44.966Z,93993.97
2022-09-02T16:26:30.586Z,93997.84
2022-09-02T16:29:03.259Z,93999.84
2022-09-02T16:31:32.670Z,94005.97
2022-09-02T16:34:03.889Z,94012.25
2022-09-02T16:36:33.123Z,94014.13
2022-09-02T16:39:01.152Z,94010.25
2022-09-02T16:41:35.070Z,94010.09
2022-09-02T16:44:07.509Z,94015.69
2022-09-02T16:46:36.186Z,94011.66
2022-09-02T16:49:03.699Z,94011.69
2022-09-02T16:51:30.415Z,94016.25
2022-09-02T16:54:02.721Z,94010.09
2022-09-02T16:56:30.725Z,94012.25
2022-09-02T16:59:02.012Z,94014.44
2022-09-02T17:01:32.405Z,94015.34
2022-09-02T17:04:00.417Z,94002.72
2022-09-02T17:06:28.275Z,94018.16
2022-09-02T17:08:55.164Z,94019.50
2022-09-02T17:11:26.391Z,94020.25
2022-09-02T17:14:00.131Z,94015.91
2022-09-02T17:16:29.881Z,94019.81
2022-09-02T17:18:56.907Z,94015.22
2022-09-02T17:21:28.826Z,94011.56
2022-09-02T17:23:56.628Z,94016.25
2022-09-02T17:26:26.469Z,94016.97
2022-09-02T17:28:56.563Z,94019.03
2022-09-02T17:31:30.238Z,94015.84
2022-09-02T17:33:59.807Z,94024.41
2022-09-02T17:36:28.990Z,94031.47
2022-09-02T17:39:02.673Z,94022.84
2022-09-02T17:41:48.097Z,94012.72
2022-09-02T17:44:15.618Z,94016.91
2022-09-02T17:46:44.319Z,94029.91
2022-09-02T17:49:17.244Z,94033.88
2022-09-02T17:51:45.201Z,94034.41
2022-09-02T17:54:13.022Z,94044.75
2022-09-02T17:57:00.978Z,94050.44
2022-09-02T17:59:33.631Z,94050.44
2022-09-02T18:02:15.943Z,94050.66
2022-09-02T18:05:12.015Z,94052.25
2022-09-02T18:08:02.845Z,94056.81
2022-09-02T18:11:04.501Z,94058.41
2022-09-02T18:14:08.769Z,94071.44
2022-09-02T18:17:04.478Z,94067.66
2022-09-02T18:19:49.725Z,94072.69
2022-09-02T18:22:31.288Z,94073.63
2022-09-02T18:25:21.447Z,94080.59
2022-09-02T18:28:12.527Z,94083.50
2022-09-02T18:30:51.915Z,94093.41
2022-09-02T18:33:30.558Z,94090.00
2022-09-02T18:36:36.839Z,94099.53
2022-09-02T18:39:14.857Z,94095.22
2022-09-02T18:42:02.441Z,94095.22
2022-09-02T18:44:36.483Z,94101.31
2022-09-02T18:47:10.152Z,94103.88
2022-09-02T18:49:39.697Z,94106.06
2022-09-02T18:52:10.407Z,94100.44
2022-09-02T18:54:57.415Z,94107.16
2022-09-02T18:57:29.386Z,94111.50
2022-09-02T19:00:10.318Z,94114.03
2022-09-02T19:03:03.655Z,94120.41
2022-09-02T19:05:32.722Z,94122.13
2022-09-02T19:08:40.595Z,94118.22
2022-09-02T19:11:13.627Z,94111.19
2022-09-02T19:13:49.944Z,94103.75
2022-09-02T19:16:42.608Z,94117.38
2022-09-02T19:19:10.500Z,94112.69
2022-09-02T19:21:51.815Z,94121.41
2022-09-02T19:24:26.032Z,94112.63
2022-09-02T19:27:07.375Z,94109.06
2022-09-02T19:29:37.438Z,94118.22
2022-09-02T19:32:04.760Z,94108.47
2022-09-02T19:34:37.293Z,94117.75
2022-09-02T19:37:04.974Z,94108.56
2022-09-02T19:39:34.794Z,94103.72
2022-09-02T19:42:01.685Z,94110.22
2022-09-02T19:44:28.691Z,94104.31
2022-09-02T19:47:42.378Z,94107.53
2022-09-02T19:49:42.707Z,94101.34
2022-09-02T19:52:12.227Z,94098.84
2022-09-02T19:54:40.905Z,94100.59
2022-09-02T19:57:07.839Z,94101.34
2022-09-02T19:59:34.542Z,94100.66
2022-09-02T20:02:03.529Z,94092.75
2022-09-02T20:04:31.272Z,94090.81
2022-09-02T20:06:58.945Z,94086.34
2022-09-02T20:09:29.325Z,94107.09
2022-09-02T20:11:56.564Z,94104.25
2022-09-02T20:14:23.764Z,94105.91
2022-09-02T20:16:57.274Z,94100.78
2022-09-02T20:19:24.044Z,94101.72
2022-09-02T20:21:53.567Z,94106.19
2022-09-02T20:24:31.556Z,94104.84
2022-09-02T20:27:02.977Z,94101.50
2022-09-02T20:30:09.657Z,94108.13
2022-09-02T20:32:43.901Z,94109.19
2022-09-02T20:35:38.451Z,94112.25
2022-09-02T20:38:26.718Z,94114.59
2022-09-02T20:41:09.002Z,94125.22
2022-09-02T20:44:04.788Z,94116.59
2022-09-02T20:46:36.270Z,94114.09
2022-09-02T20:49:08.857Z,94127.75
2022-09-02T20:51:55.250Z,94118.59
2022-09-02T20:54:31.581Z,94116.09
2022-09-02T20:57:26.420Z,94115.97
2022-09-02T20:59:58.611Z,94117.41
2022-09-02T21:02:37.888Z,94121.63
2022-09-02T21:05:22.831Z,94124.00
2022-09-02T21:07:58.163Z,94130.38
2022-09-02T21:10:32.379Z,94132.53
2022-09-02T21:13:17.739Z,94144.16
2022-09-02T21:15:47.285Z,94142.25
2022-09-02T21:18:26.443Z,94134.81
2022-09-02T21:21:02.920Z,94141.06
2022-09-02T21:23:38.719Z,94138.41
2022-09-02T21:26:17.034Z,94136.88
2022-09-02T21:29:13.581Z,94135.75
2022-09-02T21:31:48.823Z,94138.91
2022-09-02T21:34:40.120Z,94138.22
2022-09-02T21:37:10.006Z,94141.81
2022-09-02T21:39:42.130Z,94140.06
2022-09-02T21:42:41.743Z,94140.59
2022-09-02T21:45:26.682Z,94143.66
2022-09-02T21:48:06.504Z,94140.88
2022-09-02T21:50:45.813Z,94144.69
2022-09-02T21:53:24.122Z,94139.88
2022-09-02T21:56:15.260Z,94144.13
2022-09-02T21:58:55.864Z,94140.53
2022-09-02T22:01:23.412Z,94144.81
2022-09-02T22:03:56.652Z,94147.91
2022-09-02T22:06:42.009Z,94143.16
2022-09-02T22:09:22.300Z,94141.97
2022-09-02T22:12:05.461Z,94133.13
2022-09-02T22:15:07.891Z,94141.34
2022-09-02T22:17:37.447Z,94137.72
2022-09-02T22:20:07.591Z,94135.59
2022-09-02T22:22:42.212Z,94135.41
2022-09-02T22:25:14.894Z,94126.97
2022-09-02T22:27:47.559Z,94134.31
2022-09-02T22:30:15.703Z,94128.09
2022-09-02T22:32:48.420Z,94129.09
2022-09-02T22:36:00.727Z,94119.22
2022-09-02T22:38:53.383Z,94120.75
2022-09-02T22:41:34.350Z,94124.72
2022-09-02T22:44:18.085Z,94116.16
2022-09-02T22:47:07.718Z,94116.84
2022-09-02T22:49:59.402Z,94118.00
2022-09-02T22:52:54.804Z,94116.78
2022-09-02T22:56:01.206Z,94120.53
2022-09-02T22:58:56.982Z,94122.06
2022-09-02T23:01:53.706Z,94124.50
2022-09-02T23:04:39.797Z,94120.34
2022-09-02T23:07:07.515Z,94122.28
2022-09-02T23:09:37.828Z,94113.34
2022-09-02T23:12:13.202Z,94116.84
2022-09-02T23:15:10.982Z,94119.09
2022-09-02T23:17:46.445Z,94126.38
2022-09-02T23:20:19.839Z,94125.53
2022-09-02T23:23:04.665Z,94123.41
2022-09-02T23:25:52.076Z,94125.19
2022-09-02T23:28:32.198Z,94123.16
2022-09-02T23:31:12.431Z,94120.09
2022-09-02T23:34:00.810Z,94122.16
2022-09-02T23:36:40.330Z,94119.59
2022-09-02T23:39:22.811Z,94118.16
2022-09-02T23:41:49.621Z,94114.69
2022-09-02T23:44:16.688Z,94128.25
2022-09-02T23:47:20.290Z,94121.28
2022-09-02T23:50:02.682Z,94120.47
2022-09-02T23:52:43.002Z,94129.63
2022-09-02T23:55:23.680Z,94130.03
2022-09-02T23:58:08.559Z,94128.72
